createdAt,value
2023-01-26T00:01:29.388Z,102373.59
2023-01-26T00:03:57.534Z,102369.13
2023-01-26T00:06:26.239Z,102369.94
2023-01-26T00:08:56.653Z,102368.06
2023-01-26T00:11:27.201Z,102363.78
2023-01-26T00:13:56.977Z,102360.97
2023-01-26T00:16:25.324Z,102359.97
2023-01-26T00:18:53.936Z,102357.38
2023-01-26T00:21:23.801Z,102356.56
2023-01-26T00:23:52.799Z,102349.78
2023-01-26T00:26:25.301Z,102351.63
2023-01-26T00:28:53.674Z,102347.13
2023-01-26T00:31:27.470Z,102348.81
2023-01-26T00:33:56.060Z,102343.44
2023-01-26T00:36:23.498Z,102339.06
2023-01-26T00:38:53.382Z,102341.34
2023-01-26T00:41:39.339Z,102334.38
2023-01-26T00:44:06.495Z,102336.84
2023-01-26T00:46:33.496Z,102325.50
2023-01-26T00:49:01.132Z,102325.50
2023-01-26T00:51:28.651Z,102326.50
2023-01-26T00:53:55.929Z,102324.81
2023-01-26T00:56:23.128Z,102317.03
2023-01-26T00:58:50.838Z,102315.25
2023-01-26T01:01:17.969Z,102309.97
2023-01-26T01:03:45.168Z,102318.63
2023-01-26T01:06:15.182Z,102308.66
2023-01-26T01:08:42.183Z,102310.56
2023-01-26T01:11:11.995Z,102312.16
2023-01-26T01:13:39.874Z,102309.47
2023-01-26T01:16:13.683Z,102306.88
2023-01-26T01:18:42.554Z,102309.56
2023-01-26T01:21:13.104Z,102295.72
2023-01-26T01:23:41.363Z,102300.31
2023-01-26T01:26:09.640Z,102300.31
2023-01-26T01:28:38.202Z,102303.97
2023-01-26T01:31:07.479Z,102292.72
2023-01-26T01:33:34.953Z,102290.13
2023-01-26T01:36:10.296Z,102291.94
2023-01-26T01:38:37.765Z,102297.00
2023-01-26T01:41:05.188Z,102285.75
2023-01-26T01:43:32.710Z,102293.75
2023-01-26T01:46:06.420Z,102287.78
2023-01-26T01:48:52.618Z,102286.16
2023-01-26T01:51:45.214Z,102296.44
2023-01-26T01:54:17.749Z,102295.63
2023-01-26T01:56:53.445Z,102293.84
2023-01-26T01:59:21.529Z,102293.94
2023-01-26T02:01:52.049Z,102288.03
2023-01-26T02:04:22.698Z,102287.47
2023-01-26T02:06:57.172Z,102286.66
2023-01-26T02:09:50.707Z,102281.47
2023-01-26T02:12:23.084Z,102281.56
2023-01-26T02:14:53.139Z,102274.69
2023-01-26T02:17:20.525Z,102275.78
2023-01-26T02:19:54.974Z,102281.97
2023-01-26T02:22:52.833Z,102274.38
2023-01-26T02:25:52.035Z,102276.06
2023-01-26T02:28:23.169Z,102277.78
2023-01-26T02:30:51.366Z,102276.97
2023-01-26T02:33:25.778Z,102274.38
2023-01-26T02:35:53.531Z,102269.28
2023-01-26T02:38:24.222Z,102269.19
2023-01-26T02:41:36.911Z,102266.63
2023-01-26T02:44:07.735Z,102270.91
2023-01-26T02:46:35.254Z,102272.69
2023-01-26T02:49:21.674Z,102258.94
2023-01-26T02:51:48.758Z,102258.13
2023-01-26T02:54:35.835Z,102258.94
2023-01-26T02:57:03.210Z,102265.09
2023-01-26T02:59:30.452Z,102261.59
2023-01-26T03:01:58.353Z,102260.84
2023-01-26T03:04:25.746Z,102265.22
2023-01-26T03:06:53.366Z,102266.13
2023-01-26T03:09:20.393Z,102268.88
2023-01-26T03:11:47.758Z,102262.91
2023-01-26T03:14:15.841Z,102265.59
2023-01-26T03:16:43.928Z,102249.25
2023-01-26T03:19:33.137Z,102252.03
2023-01-26T03:22:18.967Z,102252.13
2023-01-26T03:25:05.261Z,102252.03
2023-01-26T03:27:42.672Z,102243.28
2023-01-26T03:30:11.333Z,102243.38
2023-01-26T03:32:39.094Z,102242.38
2023-01-26T03:35:07.537Z,102246.84
2023-01-26T03:37:43.636Z,102253.03
2023-01-26T03:40:31.787Z,102248.72
2023-01-26T03:43:17.926Z,102237.66
2023-01-26T03:46:03.435Z,102241.34
2023-01-26T03:48:49.425Z,102240.63
2023-01-26T03:51:35.071Z,102233.84
2023-01-26T03:54:20.996Z,102232.03
2023-01-26T03:56:47.974Z,102228.78
2023-01-26T03:59:16.807Z,102230.47
2023-01-26T04:02:06.942Z,102227.25
2023-01-26T04:04:53.025Z,102228.22
2023-01-26T04:07:38.637Z,102225.03
2023-01-26T04:10:06.515Z,102230.41
2023-01-26T04:12:33.720Z,102227.72
2023-01-26T04:15:19.856Z,102229.50
2023-01-26T04:18:05.403Z,102223.53
2023-01-26T04:20:50.932Z,102230.50
2023-01-26T04:23:19.932Z,102226.09
2023-01-26T04:25:48.837Z,102223.53
2023-01-26T04:28:16.325Z,102228.63
2023-01-26T04:30:43.743Z,102226.03
2023-01-26T04:33:10.985Z,102225.13
2023-01-26T04:35:40.731Z,102231.28
2023-01-26T04:38:07.847Z,102236.47
2023-01-26T04:40:34.851Z,102232.28
2023-01-26T04:43:02.077Z,102232.41
2023-01-26T04:45:29.277Z,102223.72
2023-01-26T04:47:56.451Z,102229.88
2023-01-26T04:50:23.540Z,102223.00
2023-01-26T04:52:50.672Z,102229.09
2023-01-26T04:55:17.663Z,102221.31
2023-01-26T04:57:44.647Z,102219.53
2023-01-26T05:00:13.230Z,102229.00
2023-01-26T05:02:40.942Z,102209.97
2023-01-26T05:05:08.593Z,102220.50
2023-01-26T05:07:35.707Z,102215.41
2023-01-26T05:10:02.987Z,102213.78
2023-01-26T05:12:37.411Z,102216.50
2023-01-26T05:15:05.031Z,102212.28
2023-01-26T05:17:32.324Z,102208.91
2023-01-26T05:19:59.493Z,102212.47
2023-01-26T05:22:26.470Z,102221.34
2023-01-26T05:24:53.435Z,102221.44
2023-01-26T05:27:23.791Z,102223.84
2023-01-26T05:29:51.859Z,102217.84
2023-01-26T05:32:19.192Z,102227.44
2023-01-26T05:34:46.450Z,102230.09
2023-01-26T05:37:15.060Z,102230.91
2023-01-26T05:39:42.639Z,102229.28
2023-01-26T05:42:12.085Z,102232.06
2023-01-26T05:44:39.843Z,102227.69
2023-01-26T05:47:07.183Z,102224.28
2023-01-26T05:49:34.427Z,102232.19
2023-01-26T05:52:01.751Z,102226.09
2023-01-26T05:54:29.089Z,102222.69
2023-01-26T05:56:57.674Z,102230.56
2023-01-26T05:59:24.999Z,102229.75
2023-01-26T06:01:52.316Z,102232.44
2023-01-26T06:04:19.770Z,102235.91
2023-01-26T06:06:47.106Z,102230.75
2023-01-26T06:09:14.689Z,102234.31
2023-01-26T06:11:41.788Z,102230.81
2023-01-26T06:14:08.978Z,102225.63
2023-01-26T06:16:36.159Z,102230.81
2023-01-26T06:19:03.928Z,102244.59
2023-01-26T06:21:34.400Z,102247.19
2023-01-26T06:24:01.716Z,102245.59
2023-01-26T06:26:29.156Z,102248.22
2023-01-26T06:28:56.715Z,102250.00
2023-01-26T06:31:29.666Z,102250.06
2023-01-26T06:33:56.896Z,102250.16
2023-01-26T06:36:24.074Z,102245.88
2023-01-26T06:38:56.894Z,102248.38
2023-01-26T06:41:24.512Z,102247.56
2023-01-26T06:43:51.668Z,102247.56
2023-01-26T06:46:19.605Z,102248.63
2023-01-26T06:48:47.216Z,102255.63
2023-01-26T06:51:20.290Z,102257.44
2023-01-26T06:53:59.076Z,102254.84
2023-01-26T06:56:28.721Z,102254.03
2023-01-26T06:58:56.019Z,102259.13
2023-01-26T07:01:26.793Z,102257.50
2023-01-26T07:03:55.446Z,102255.00
2023-01-26T07:06:22.828Z,102256.69
2023-01-26T07:08:49.919Z,102255.81
2023-01-26T07:11:17.390Z,102256.63
2023-01-26T07:13:44.585Z,102252.31
2023-01-26T07:16:16.318Z,102254.91
2023-01-26T07:18:44.361Z,102250.63
2023-01-26T07:21:15.990Z,102252.50
2023-01-26T07:23:43.245Z,102254.28
2023-01-26T07:26:11.015Z,102256.06
2023-01-26T07:28:40.175Z,102259.66
2023-01-26T07:31:08.778Z,102254.47
2023-01-26T07:33:36.123Z,102264.13
2023-01-26T07:36:04.176Z,102265.19
2023-01-26T07:38:32.916Z,102272.22
2023-01-26T07:41:04.388Z,102271.28
2023-01-26T07:43:34.610Z,102277.47
2023-01-26T07:46:02.211Z,102272.28
2023-01-26T07:48:32.229Z,102277.56
2023-01-26T07:51:02.072Z,102272.53
2023-01-26T07:53:30.915Z,102279.66
2023-01-26T07:56:13.550Z,102279.81
2023-01-26T07:58:41.161Z,102285.16
2023-01-26T08:01:13.737Z,102289.66
2023-01-26T08:03:49.980Z,102286.34
2023-01-26T08:06:18.518Z,102288.22
2023-01-26T08:08:53.986Z,102296.97
2023-01-26T08:11:23.616Z,102288.50
2023-01-26T08:13:51.138Z,102285.09
2023-01-26T08:16:18.797Z,102285.25
2023-01-26T08:18:47.338Z,102293.13
2023-01-26T08:21:17.425Z,102294.94
2023-01-26T08:23:51.567Z,102293.25
2023-01-26T08:26:20.144Z,102290.81
2023-01-26T08:28:48.091Z,102285.78
2023-01-26T08:31:20.767Z,102296.38
2023-01-26T08:33:50.911Z,102298.16
2023-01-26T08:36:22.079Z,102311.41
2023-01-26T08:38:51.363Z,102306.19
2023-01-26T08:41:21.696Z,102310.59
2023-01-26T08:43:49.012Z,102305.59
2023-01-26T08:46:16.332Z,102307.63
2023-01-26T08:48:43.767Z,102311.38
2023-01-26T08:51:11.173Z,102309.88
2023-01-26T08:53:38.700Z,102300.63
2023-01-26T08:56:10.595Z,102311.09
2023-01-26T08:58:38.828Z,102314.59
2023-01-26T09:01:13.429Z,102316.38
2023-01-26T09:03:41.546Z,102314.59
2023-01-26T09:06:10.861Z,102313.78
2023-01-26T09:08:38.491Z,102325.25
2023-01-26T09:11:07.581Z,102323.72
2023-01-26T09:13:37.127Z,102319.53
2023-01-26T09:16:07.107Z,102317.97
2023-01-26T09:18:38.949Z,102314.84
2023-01-26T09:21:10.096Z,102310.16
2023-01-26T09:23:38.817Z,102314.25
2023-01-26T09:26:05.968Z,102307.75
2023-01-26T09:28:33.099Z,102316.88
2023-01-26T09:31:09.812Z,102310.47
2023-01-26T09:33:37.833Z,102310.00
2023-01-26T09:36:08.058Z,102316.22
2023-01-26T09:38:35.514Z,102313.00
2023-01-26T09:41:41.172Z,102314.16
2023-01-26T09:44:25.669Z,102306.50
2023-01-26T09:47:46.555Z,102324.03
2023-01-26T09:50:35.092Z,102323.25
2023-01-26T09:53:07.098Z,102323.41
2023-01-26T09:55:34.313Z,102321.63
2023-01-26T09:58:13.007Z,102325.19
2023-01-26T10:00:58.116Z,102317.53
2023-01-26T10:04:11.287Z,102328.22
2023-01-26T10:06:38.982Z,102329.84
2023-01-26T10:09:23.011Z,102330.75
2023-01-26T10:11:59.269Z,102323.00
2023-01-26T10:14:40.910Z,102316.16
2023-01-26T10:17:20.538Z,102326.66
2023-01-26T10:20:00.097Z,102326.75
2023-01-26T10:22:44.721Z,102321.38
2023-01-26T10:25:19.595Z,102323.16
2023-01-26T10:27:47.122Z,102320.63
2023-01-26T10:30:20.474Z,102317.41
2023-01-26T10:32:52.482Z,102318.53
2023-01-26T10:35:24.457Z,102321.22
2023-01-26T10:37:53.194Z,102322.25
2023-01-26T10:40:21.799Z,102314.53
2023-01-26T10:42:59.699Z,102319.72
2023-01-26T10:45:34.004Z,102326.72
2023-01-26T10:48:16.200Z,102319.97
2023-01-26T10:50:43.532Z,102327.78
2023-01-26T10:53:30.610Z,102322.22
2023-01-26T10:56:17.327Z,102325.91
2023-01-26T10:58:55.194Z,102326.56
2023-01-26T11:01:27.478Z,102329.91
2023-01-26T11:04:14.983Z,102333.22
2023-01-26T11:06:42.194Z,102323.63
2023-01-26T11:09:15.443Z,102322.72
2023-01-26T11:11:54.209Z,102321.84
2023-01-26T11:14:21.340Z,102320.88
2023-01-26T11:17:26.107Z,102322.00
2023-01-26T11:20:27.084Z,102314.50
2023-01-26T11:23:02.941Z,102308.88
2023-01-26T11:25:45.056Z,102310.47
2023-01-26T11:28:24.408Z,102317.53
2023-01-26T11:31:16.217Z,102311.16
2023-01-26T11:34:40.341Z,102305.72
2023-01-26T11:37:45.407Z,102314.31
2023-01-26T11:40:28.618Z,102308.03
2023-01-26T11:43:24.244Z,102312.94
2023-01-26T11:46:16.542Z,102314.53
2023-01-26T11:49:25.225Z,102318.91
2023-01-26T11:52:14.420Z,102309.31
2023-01-26T11:55:11.055Z,102300.84
2023-01-26T11:58:25.935Z,102295.34
2023-01-26T12:01:06.045Z,102293.22
2023-01-26T12:03:52.051Z,102287.47
2023-01-26T12:06:28.689Z,102285.81
2023-01-26T12:09:18.797Z,102283.13
2023-01-26T12:12:08.928Z,102284.63
2023-01-26T12:14:58.181Z,102278.75
2023-01-26T12:17:42.643Z,102279.44
2023-01-26T12:20:24.741Z,102283.44
2023-01-26T12:23:04.752Z,102285.09
2023-01-26T12:25:53.167Z,102280.06
2023-01-26T12:28:42.200Z,102276.38
2023-01-26T12:31:25.263Z,102277.78
2023-01-26T12:33:56.795Z,102269.47
2023-01-26T12:37:02.780Z,102272.34
2023-01-26T12:40:25.574Z,102266.06
2023-01-26T12:43:20.312Z,102254.00
2023-01-26T12:45:54.525Z,102243.13
2023-01-26T12:48:45.657Z,102248.16
2023-01-26T12:51:36.085Z,102240.19
2023-01-26T12:54:22.653Z,102247.72
2023-01-26T12:56:56.459Z,102245.56
2023-01-26T12:59:47.232Z,102233.31
2023-01-26T13:02:15.670Z,102234.16
2023-01-26T13:04:48.989Z,102237.59
2023-01-26T13:07:40.971Z,102238.91
2023-01-26T13:10:20.437Z,102234.06
2023-01-26T13:12:58.628Z,102230.16
2023-01-26T13:15:31.612Z,102226.97
2023-01-26T13:18:01.585Z,102218.56
2023-01-26T13:20:40.577Z,102216.88
2023-01-26T13:23:43.374Z,102222.28
2023-01-26T13:26:15.583Z,102217.44
2023-01-26T13:28:44.060Z,102222.16
2023-01-26T13:31:12.768Z,102224.13
2023-01-26T13:33:42.110Z,102223.31
2023-01-26T13:36:18.397Z,102219.13
2023-01-26T13:39:00.252Z,102225.19
2023-01-26T13:41:27.360Z,102221.69
2023-01-26T13:44:22.949Z,102219.88
2023-01-26T13:47:02.614Z,102212.91
2023-01-26T13:49:42.066Z,102216.44
2023-01-26T13:52:22.904Z,102215.78
2023-01-26T13:54:57.999Z,102214.91
2023-01-26T13:57:30.657Z,102216.94
2023-01-26T14:00:00.969Z,102209.44
2023-01-26T14:02:32.005Z,102215.75
2023-01-26T14:05:01.862Z,102211.34
2023-01-26T14:07:39.915Z,102212.81
2023-01-26T14:10:08.812Z,102208.91
2023-01-26T14:12:45.995Z,102222.56
2023-01-26T14:15:31.394Z,102225.78
2023-01-26T14:18:02.543Z,102222.16
2023-01-26T14:20:32.519Z,102223.94
2023-01-26T14:23:10.513Z,102230.16
2023-01-26T14:25:39.253Z,102231.13
2023-01-26T14:28:13.097Z,102229.50
2023-01-26T14:30:40.974Z,102230.66
2023-01-26T14:33:17.352Z,102230.66
2023-01-26T14:36:01.414Z,102232.47
2023-01-26T14:38:33.076Z,102226.34
2023-01-26T14:41:01.496Z,102233.31
2023-01-26T14:43:28.724Z,102229.78
2023-01-26T14:46:09.479Z,102232.22
2023-01-26T14:49:05.982Z,102223.53
2023-01-26T14:51:36.813Z,102232.34
2023-01-26T14:54:16.227Z,102240.25
2023-01-26T14:56:47.769Z,102236.97
2023-01-26T14:59:23.678Z,102240.56
2023-01-26T15:01:51.314Z,102241.56
2023-01-26T15:04:38.319Z,102248.66
2023-01-26T15:07:37.542Z,102234.75
2023-01-26T15:10:43.891Z,102232.88
2023-01-26T15:13:10.979Z,102242.34
2023-01-26T15:15:41.450Z,102245.75
2023-01-26T15:18:14.783Z,102250.91
2023-01-26T15:21:19.548Z,102248.16
2023-01-26T15:23:52.136Z,102239.31
2023-01-26T15:26:29.668Z,102237.31
2023-01-26T15:29:00.433Z,102235.25
2023-01-26T15:31:42.511Z,102228.84
2023-01-26T15:34:48.372Z,102226.13
2023-01-26T15:37:33.842Z,102229.50
2023-01-26T15:40:00.972Z,102225.91
2023-01-26T15:42:32.935Z,102219.59
2023-01-26T15:45:00.312Z,102222.13
2023-01-26T15:47:27.641Z,102219.41
2023-01-26T15:49:54.793Z,102224.50
2023-01-26T15:52:30.494Z,102226.97
2023-01-26T15:54:57.821Z,102219.00
2023-01-26T15:57:24.984Z,102225.00
2023-01-26T15:59:52.238Z,102224.03
2023-01-26T16:02:21.391Z,102233.50
2023-01-26T16:04:48.635Z,102233.41
2023-01-26T16:07:18.088Z,102230.69
2023-01-26T16:09:45.408Z,102224.47
2023-01-26T16:12:30.842Z,102234.00
2023-01-26T16:14:59.716Z,102232.19
2023-01-26T16:17:26.796Z,102237.38
2023-01-26T16:19:55.371Z,102233.72
2023-01-26T16:22:22.668Z,102245.03
2023-01-26T16:24:50.081Z,102242.34
2023-01-26T16:27:17.382Z,102243.25
2023-01-26T16:29:44.535Z,102240.56
2023-01-26T16:32:42.549Z,102241.47
2023-01-26T16:35:17.338Z,102243.13
2023-01-26T16:37:45.310Z,102244.91
2023-01-26T16:40:15.942Z,102250.16
2023-01-26T16:42:53.805Z,102258.00
2023-01-26T16:45:26.666Z,102250.16
2023-01-26T16:47:56.941Z,102255.28
2023-01-26T16:50:26.211Z,102257.09
2023-01-26T16:52:53.511Z,102264.94
2023-01-26T16:55:20.738Z,102254.50
2023-01-26T16:57:49.975Z,102265.84
2023-01-26T17:00:20.424Z,102250.97
2023-01-26T17:02:52.769Z,102262.38
2023-01-26T17:05:21.979Z,102259.78
2023-01-26T17:07:51.035Z,102258.88
2023-01-26T17:10:18.813Z,102260.66
2023-01-26T17:12:46.064Z,102262.38
2023-01-26T17:15:13.555Z,102260.59
2023-01-26T17:17:42.468Z,102261.56
2023-01-26T17:20:19.245Z,102254.53
2023-01-26T17:22:47.694Z,102256.25
2023-01-26T17:25:17.700Z,102256.25
2023-01-26T17:27:47.442Z,102257.16
2023-01-26T17:30:14.981Z,102263.34
2023-01-26T17:32:42.855Z,102258.94
2023-01-26T17:35:10.667Z,102266.88
2023-01-26T17:37:39.577Z,102266.94
2023-01-26T17:40:09.321Z,102265.16
2023-01-26T17:42:36.558Z,102264.28
2023-01-26T17:45:05.698Z,102268.56
2023-01-26T17:47:33.979Z,102267.69
2023-01-26T17:50:01.583Z,102264.13
2023-01-26T17:52:31.369Z,102265.84
2023-01-26T17:54:59.101Z,102269.28
2023-01-26T17:57:26.461Z,102266.69
2023-01-26T17:59:53.775Z,102258.75
2023-01-26T18:02:21.088Z,102264.06
2023-01-26T18:04:49.060Z,102262.19
2023-01-26T18:07:16.304Z,102268.25
2023-01-26T18:09:43.426Z,102270.00
2023-01-26T18:12:10.579Z,102271.72
2023-01-26T18:14:37.703Z,102267.38
2023-01-26T18:17:04.843Z,102273.38
2023-01-26T18:19:32.003Z,102271.66
2023-01-26T18:21:59.056Z,102265.53
2023-01-26T18:24:26.539Z,102263.75
2023-01-26T18:26:53.819Z,102278.63
2023-01-26T18:29:20.944Z,102264.59
2023-01-26T18:31:48.291Z,102277.69
2023-01-26T18:34:15.717Z,102274.06
2023-01-26T18:36:42.991Z,102279.25
2023-01-26T18:39:14.423Z,102273.19
2023-01-26T18:41:44.513Z,102280.97
2023-01-26T18:44:11.995Z,102282.72
2023-01-26T18:46:39.415Z,102271.31
2023-01-26T18:49:06.599Z,102274.75
2023-01-26T18:51:36.021Z,102273.03
2023-01-26T18:54:04.821Z,102278.25
2023-01-26T18:56:32.483Z,102279.91
2023-01-26T18:58:59.752Z,102277.28
2023-01-26T19:01:28.520Z,102282.50
2023-01-26T19:03:56.072Z,102276.34
2023-01-26T19:06:25.910Z,102269.31
2023-01-26T19:09:00.431Z,102270.22
2023-01-26T19:11:31.321Z,102275.38
2023-01-26T19:13:59.925Z,102271.88
2023-01-26T19:16:28.945Z,102271.88
2023-01-26T19:18:56.771Z,102272.72
2023-01-26T19:21:27.499Z,102263.97
2023-01-26T19:23:57.620Z,102269.22
2023-01-26T19:26:29.396Z,102265.72
2023-01-26T19:28:58.177Z,102269.06
2023-01-26T19:31:26.768Z,102270.84
2023-01-26T19:33:59.603Z,102269.06
2023-01-26T19:36:29.100Z,102271.63
2023-01-26T19:38:56.515Z,102266.47
2023-01-26T19:41:25.037Z,102270.84
2023-01-26T19:43:52.671Z,102281.41
2023-01-26T19:46:20.940Z,102268.22
2023-01-26T19:48:49.145Z,102269.97
2023-01-26T19:51:26.404Z,102262.06
2023-01-26T19:53:58.978Z,102264.72
2023-01-26T19:56:35.082Z,102267.34
2023-01-26T19:59:06.689Z,102268.22
2023-01-26T20:01:34.489Z,102267.34
2023-01-26T20:04:05.406Z,102272.56
2023-01-26T20:06:35.375Z,102270.03
2023-01-26T20:09:06.222Z,102276.16
2023-01-26T20:11:34.157Z,102273.59
2023-01-26T20:14:06.267Z,102269.22
2023-01-26T20:16:34.381Z,102260.53
2023-01-26T20:19:02.555Z,102265.72
2023-01-26T20:21:31.505Z,102268.31
2023-01-26T20:24:05.254Z,102274.50
2023-01-26T20:26:35.263Z,102267.53
2023-01-26T20:29:03.496Z,102263.97
2023-01-26T20:31:32.641Z,102264.88
2023-01-26T20:34:01.762Z,102261.44
2023-01-26T20:36:29.327Z,102254.41
2023-01-26T20:38:57.335Z,102257.91
2023-01-26T20:41:28.447Z,102257.91
2023-01-26T20:44:00.524Z,102258.81
2023-01-26T20:46:31.959Z,102251.84
2023-01-26T20:48:59.624Z,102248.34
2023-01-26T20:51:31.404Z,102251.78
2023-01-26T20:53:58.792Z,102257.91
2023-01-26T20:56:26.872Z,102266.59
2023-01-26T20:58:56.182Z,102260.38
2023-01-26T21:01:24.269Z,102259.59
2023-01-26T21:03:52.166Z,102266.53
2023-01-26T21:06:22.329Z,102265.63
2023-01-26T21:08:54.094Z,102265.72
2023-01-26T21:11:22.954Z,102265.72
2023-01-26T21:13:52.090Z,102266.59
2023-01-26T21:16:20.027Z,102263.97
2023-01-26T21:18:47.668Z,102264.88
2023-01-26T21:21:19.014Z,102253.53
2023-01-26T21:23:47.425Z,102252.63
2023-01-26T21:26:22.135Z,102260.53
2023-01-26T21:28:59.683Z,102251.78
2023-01-26T21:31:30.220Z,102257.91
2023-01-26T21:34:02.640Z,102253.53
2023-01-26T21:36:32.243Z,102257.03
2023-01-26T21:39:00.881Z,102249.13
2023-01-26T21:41:52.066Z,102250.06
2023-01-26T21:44:28.664Z,102247.41
2023-01-26T21:46:59.696Z,102246.56
2023-01-26T21:49:28.637Z,102243.06
2023-01-26T21:52:14.739Z,102242.19
2023-01-26T21:54:41.997Z,102236.94
2023-01-26T21:57:29.082Z,102235.22
2023-01-26T21:59:56.679Z,102236.06
2023-01-26T22:02:24.046Z,102239.56
2023-01-26T22:04:52.219Z,102231.63
2023-01-26T22:07:19.559Z,102230.69
2023-01-26T22:09:46.660Z,102231.53
2023-01-26T22:12:13.842Z,102227.13
2023-01-26T22:14:40.968Z,102222.72
2023-01-26T22:17:08.084Z,102222.72
2023-01-26T22:19:35.808Z,102225.34
2023-01-26T22:22:03.714Z,102227.03
2023-01-26T22:24:31.354Z,102225.28
2023-01-26T22:26:58.515Z,102226.13
2023-01-26T22:29:25.630Z,102228.75
2023-01-26T22:31:52.858Z,102224.25
2023-01-26T22:34:20.050Z,102225.03
2023-01-26T22:36:47.254Z,102224.03
2023-01-26T22:39:14.658Z,102230.00
2023-01-26T22:41:41.900Z,102234.25
2023-01-26T22:44:09.421Z,102231.44
2023-01-26T22:46:36.897Z,102242.72
2023-01-26T22:49:07.017Z,102234.75
2023-01-26T22:51:37.345Z,102230.28
2023-01-26T22:54:06.207Z,102230.22
2023-01-26T22:56:33.848Z,102228.44
2023-01-26T22:59:01.683Z,102230.09
2023-01-26T23:01:31.510Z,102230.94
2023-01-26T23:04:00.388Z,102236.16
2023-01-26T23:06:28.365Z,102240.56
2023-01-26T23:08:55.867Z,102238.00
2023-01-26T23:11:28.925Z,102236.28
2023-01-26T23:13:58.313Z,102239.72
2023-01-26T23:16:26.810Z,102244.13
2023-01-26T23:18:57.372Z,102246.72
2023-01-26T23:21:25.909Z,102247.69
2023-01-26T23:23:53.141Z,102244.19
2023-01-26T23:26:21.021Z,102235.44
2023-01-26T23:28:48.542Z,102239.84
2023-01-26T23:31:18.004Z,102241.56
2023-01-26T23:33:45.682Z,102238.06
2023-01-26T23:36:14.534Z,102241.50
2023-01-26T23:38:41.910Z,102241.50
2023-01-26T23:41:09.119Z,102245.72
2023-01-26T23:43:36.669Z,102251.00
2023-01-26T23:46:06.491Z,102252.78
2023-01-26T23:48:33.646Z,102251.91
2023-01-26T23:51:04.821Z,102250.19
2023-01-26T23:53:32.550Z,102241.44
2023-01-26T23:56:23.059Z,102249.28
2023-01-26T23:58:50.166Z,102251.00
